sensor_id;sensor_type;location;lat;lon;timestamp;temperature;humidity
1936;DHT22;969;49.892;10.896;2022-07-29T00:01:27;27.10;40.10
1936;DHT22;969;49.892;10.896;2022-07-29T00:08:07;27.10;40.10
1936;DHT22;969;49.892;10.896;2022-07-29T00:17:08;27.00;40.00
1936;DHT22;969;49.892;10.896;2022-07-29T00:19:52;27.00;40.00
1936;DHT22;969;49.892;10.896;2022-07-29T00:23:03;27.10;40.00
1936;DHT22;969;49.892;10.896;2022-07-29T00:26:18;27.00;39.80
1936;DHT22;969;49.892;10.896;2022-07-29T00:35:50;27.10;39.80
1936;DHT22;969;49.892;10.896;2022-07-29T00:39:21;27.00;39.80
1936;DHT22;969;49.892;10.896;2022-07-29T00:42:30;27.00;39.60
1936;DHT22;969;49.892;10.896;2022-07-29T00:48:31;27.00;39.70
1936;DHT22;969;49.892;10.896;2022-07-29T00:51:11;27.00;39.70
1936;DHT22;969;49.892;10.896;2022-07-29T00:54:22;27.00;39.70
1936;DHT22;969;49.892;10.896;2022-07-29T01:00:28;27.00;39.60
1936;DHT22;969;49.892;10.896;2022-07-29T01:03:01;27.00;39.70
1936;DHT22;969;49.892;10.896;2022-07-29T01:05:39;27.00;39.70
1936;DHT22;969;49.892;10.896;2022-07-29T01:11:59;27.00;39.80
1936;DHT22;969;49.892;10.896;2022-07-29T01:18:11;27.00;39.70
1936;DHT22;969;49.892;10.896;2022-07-29T01:27:44;27.00;39.80
1936;DHT22;969;49.892;10.896;2022-07-29T01:30:20;27.00;39.80
1936;DHT22;969;49.892;10.896;2022-07-29T01:33:22;26.90;39.80
1936;DHT22;969;49.892;10.896;2022-07-29T01:36:20;27.00;39.90
1936;DHT22;969;49.892;10.896;2022-07-29T01:43:06;27.00;40.00
1936;DHT22;969;49.892;10.896;2022-07-29T01:49:28;27.00;40.10
1936;DHT22;969;49.892;10.896;2022-07-29T01:52:53;27.00;40.00
1936;DHT22;969;49.892;10.896;2022-07-29T01:56:19;26.90;39.90
1936;DHT22;969;49.892;10.896;2022-07-29T02:02:20;27.00;39.90
1936;DHT22;969;49.892;10.896;2022-07-29T02:05:58;27.00;39.70
1936;DHT22;969;49.892;10.896;2022-07-29T02:12:10;26.90;39.80
1936;DHT22;969;49.892;10.896;2022-07-29T02:15:17;26.90;39.90
1936;DHT22;969;49.892;10.896;2022-07-29T02:18:15;26.90;40.00
1936;DHT22;969;49.892;10.896;2022-07-29T02:21:00;26.90;39.90
1936;DHT22;969;49.892;10.896;2022-07-29T02:27:36;26.90;39.60
1936;DHT22;969;49.892;10.896;2022-07-29T02:34:25;26.90;39.90
1936;DHT22;969;49.892;10.896;2022-07-29T02:44:18;26.90;39.90
1936;DHT22;969;49.892;10.896;2022-07-29T02:50:47;26.90;40.00
1936;DHT22;969;49.892;10.896;2022-07-29T02:57:20;26.90;39.80
1936;DHT22;969;49.892;10.896;2022-07-29T02:59:53;26.90;39.80
1936;DHT22;969;49.892;10.896;2022-07-29T03:05:39;26.90;39.80
1936;DHT22;969;49.892;10.896;2022-07-29T03:08:20;26.90;39.80
1936;DHT22;969;49.892;10.896;2022-07-29T03:11:17;26.90;39.80
1936;DHT22;969;49.892;10.896;2022-07-29T03:14:08;26.90;39.80
1936;DHT22;969;49.892;10.896;2022-07-29T03:24:33;26.90;39.80
1936;DHT22;969;49.892;10.896;2022-07-29T03:30:46;26.90;39.80
1936;DHT22;969;49.892;10.896;2022-07-29T03:33:13;26.90;39.80
1936;DHT22;969;49.892;10.896;2022-07-29T03:35:43;26.90;39.80
1936;DHT22;969;49.892;10.896;2022-07-29T03:38:13;26.90;39.80
1936;DHT22;969;49.892;10.896;2022-07-29T03:40:57;26.90;39.90
1936;DHT22;969;49.892;10.896;2022-07-29T03:43:32;26.90;39.90
1936;DHT22;969;49.892;10.896;2022-07-29T03:46:02;26.90;39.80
1936;DHT22;969;49.892;10.896;2022-07-29T03:48:31;26.90;39.90
1936;DHT22;969;49.892;10.896;2022-07-29T03:50:59;27.00;39.90
1936;DHT22;969;49.892;10.896;2022-07-29T03:53:33;26.90;39.90
1936;DHT22;969;49.892;10.896;2022-07-29T03:56:03;26.90;39.90
1936;DHT22;969;49.892;10.896;2022-07-29T03:58:35;26.90;39.90
1936;DHT22;969;49.892;10.896;2022-07-29T04:01:04;26.90;39.90
1936;DHT22;969;49.892;10.896;2022-07-29T04:03:31;26.90;39.90
1936;DHT22;969;49.892;10.896;2022-07-29T04:06:04;27.00;39.90
1936;DHT22;969;49.892;10.896;2022-07-29T04:08:34;26.90;39.90
1936;DHT22;969;49.892;10.896;2022-07-29T04:11:01;26.90;39.80
1936;DHT22;969;49.892;10.896;2022-07-29T04:13:29;26.90;39.80
1936;DHT22;969;49.892;10.896;2022-07-29T04:15:55;26.90;39.60
1936;DHT22;969;49.892;10.896;2022-07-29T04:18:24;26.90;39.70
1936;DHT22;969;49.892;10.896;2022-07-29T04:20:51;26.90;39.70
1936;DHT22;969;49.892;10.896;2022-07-29T04:26:42;26.90;39.80
1936;DHT22;969;49.892;10.896;2022-07-29T04:29:16;26.80;39.70
1936;DHT22;969;49.892;10.896;2022-07-29T04:31:45;26.90;39.80
1936;DHT22;969;49.892;10.896;2022-07-29T04:34:13;26.80;39.80
1936;DHT22;969;49.892;10.896;2022-07-29T04:36:47;26.80;39.80
1936;DHT22;969;49.892;10.896;2022-07-29T04:39:15;26.90;39.90
1936;DHT22;969;49.892;10.896;2022-07-29T04:41:47;26.90;39.90
1936;DHT22;969;49.892;10.896;2022-07-29T04:44:13;26.90;39.90
1936;DHT22;969;49.892;10.896;2022-07-29T04:46:40;26.90;39.90
1936;DHT22;969;49.892;10.896;2022-07-29T04:49:07;26.90;39.90
1936;DHT22;969;49.892;10.896;2022-07-29T04:51:33;26.90;39.90
1936;DHT22;969;49.892;10.896;2022-07-29T04:54:06;26.90;39.90
1936;DHT22;969;49.892;10.896;2022-07-29T04:56:33;26.90;40.00
1936;DHT22;969;49.892;10.896;2022-07-29T04:59:00;26.90;40.00
1936;DHT22;969;49.892;10.896;2022-07-29T05:01:27;26.90;39.90
1936;DHT22;969;49.892;10.896;2022-07-29T05:03:53;26.90;39.90
1936;DHT22;969;49.892;10.896;2022-07-29T05:06:22;26.90;39.90
1936;DHT22;969;49.892;10.896;2022-07-29T05:08:50;26.90;39.90
1936;DHT22;969;49.892;10.896;2022-07-29T05:11:20;26.90;40.00
1936;DHT22;969;49.892;10.896;2022-07-29T05:13:46;26.90;40.00
1936;DHT22;969;49.892;10.896;2022-07-29T05:19:34;26.90;40.10
1936;DHT22;969;49.892;10.896;2022-07-29T05:25:28;26.90;40.00
1936;DHT22;969;49.892;10.896;2022-07-29T05:28:07;26.90;40.10
1936;DHT22;969;49.892;10.896;2022-07-29T05:30:33;26.90;40.10
1936;DHT22;969;49.892;10.896;2022-07-29T05:33:01;26.80;40.00
1936;DHT22;969;49.892;10.896;2022-07-29T05:35:27;26.90;40.00
1936;DHT22;969;49.892;10.896;2022-07-29T05:37:53;26.90;40.10
1936;DHT22;969;49.892;10.896;2022-07-29T05:43:41;26.90;40.10
1936;DHT22;969;49.892;10.896;2022-07-29T05:46:07;26.90;40.70
1936;DHT22;969;49.892;10.896;2022-07-29T05:48:33;26.80;40.10
1936;DHT22;969;49.892;10.896;2022-07-29T05:51:02;26.90;40.10
1936;DHT22;969;49.892;10.896;2022-07-29T05:53:34;26.80;40.10
1936;DHT22;969;49.892;10.896;2022-07-29T05:56:06;26.80;40.10
1936;DHT22;969;49.892;10.896;2022-07-29T05:58:33;26.80;40.10
1936;DHT22;969;49.892;10.896;2022-07-29T06:00:59;26.80;40.10
1936;DHT22;969;49.892;10.896;2022-07-29T06:06:47;26.90;40.00
1936;DHT22;969;49.892;10.896;2022-07-29T06:09:25;26.90;40.10
1936;DHT22;969;49.892;10.896;2022-07-29T06:11:51;26.80;40.10
1936;DHT22;969;49.892;10.896;2022-07-29T06:14:21;26.80;40.00
1936;DHT22;969;49.892;10.896;2022-07-29T06:16:54;26.90;40.20
1936;DHT22;969;49.892;10.896;2022-07-29T06:19:26;26.90;40.10
1936;DHT22;969;49.892;10.896;2022-07-29T06:21:53;26.90;40.10
1936;DHT22;969;49.892;10.896;2022-07-29T06:24:24;26.90;40.10
1936;DHT22;969;49.892;10.896;2022-07-29T06:26:56;26.90;40.10
1936;DHT22;969;49.892;10.896;2022-07-29T06:29:28;26.90;40.10
1936;DHT22;969;49.892;10.896;2022-07-29T06:35:23;26.90;40.20
1936;DHT22;969;49.892;10.896;2022-07-29T06:37:59;26.90;40.20
1936;DHT22;969;49.892;10.896;2022-07-29T06:40:46;26.90;40.30
1936;DHT22;969;49.892;10.896;2022-07-29T06:43:44;26.90;40.30
1936;DHT22;969;49.892;10.896;2022-07-29T06:46:15;26.90;40.50
1936;DHT22;969;49.892;10.896;2022-07-29T06:48:43;26.90;40.50
1936;DHT22;969;49.892;10.896;2022-07-29T06:51:12;26.90;40.50
1936;DHT22;969;49.892;10.896;2022-07-29T06:53:39;26.90;40.50
1936;DHT22;969;49.892;10.896;2022-07-29T06:56:07;26.90;40.40
1936;DHT22;969;49.892;10.896;2022-07-29T06:58:43;27.00;40.50
1936;DHT22;969;49.892;10.896;2022-07-29T07:01:15;26.90;40.40
1936;DHT22;969;49.892;10.896;2022-07-29T07:03:47;26.90;40.40
1936;DHT22;969;49.892;10.896;2022-07-29T07:06:19;26.90;40.50
1936;DHT22;969;49.892;10.896;2022-07-29T07:08:56;26.90;40.50
1936;DHT22;969;49.892;10.896;2022-07-29T07:11:22;27.00;40.50
1936;DHT22;969;49.892;10.896;2022-07-29T07:13:56;27.00;40.50
1936;DHT22;969;49.892;10.896;2022-07-29T07:16:41;27.00;40.50
1936;DHT22;969;49.892;10.896;2022-07-29T07:19:36;27.00;40.50
1936;DHT22;969;49.892;10.896;2022-07-29T07:22:02;27.00;40.40
1936;DHT22;969;49.892;10.896;2022-07-29T07:27:51;27.00;40.50
1936;DHT22;969;49.892;10.896;2022-07-29T07:30:20;27.00;40.50
1936;DHT22;969;49.892;10.896;2022-07-29T07:33:03;27.00;40.40
1936;DHT22;969;49.892;10.896;2022-07-29T07:35:57;27.00;40.50
1936;DHT22;969;49.892;10.896;2022-07-29T07:38:36;27.00;40.50
1936;DHT22;969;49.892;10.896;2022-07-29T07:41:15;27.00;40.50
1936;DHT22;969;49.892;10.896;2022-07-29T07:43:49;27.00;40.50
1936;DHT22;969;49.892;10.896;2022-07-29T07:46:26;27.00;40.50
1936;DHT22;969;49.892;10.896;2022-07-29T07:48:59;27.00;40.50
1936;DHT22;969;49.892;10.896;2022-07-29T07:51:29;27.10;40.60
1936;DHT22;969;49.892;10.896;2022-07-29T07:53:59;27.10;40.60
1936;DHT22;969;49.892;10.896;2022-07-29T08:03:18;27.10;40.60
1936;DHT22;969;49.892;10.896;2022-07-29T08:05:50;27.00;40.60
1936;DHT22;969;49.892;10.896;2022-07-29T08:08:17;27.00;40.60
1936;DHT22;969;49.892;10.896;2022-07-29T08:10:52;27.10;40.70
1936;DHT22;969;49.892;10.896;2022-07-29T08:13:36;27.10;40.60
1936;DHT22;969;49.892;10.896;2022-07-29T08:19:38;27.10;40.70
1936;DHT22;969;49.892;10.896;2022-07-29T08:25:42;27.10;40.70
1936;DHT22;969;49.892;10.896;2022-07-29T08:28:34;27.00;40.70
1936;DHT22;969;49.892;10.896;2022-07-29T08:41:06;27.10;40.90
1936;DHT22;969;49.892;10.896;2022-07-29T08:43:44;27.10;40.90
1936;DHT22;969;49.892;10.896;2022-07-29T08:46:23;27.10;40.90
1936;DHT22;969;49.892;10.896;2022-07-29T08:49:15;27.10;41.00
1936;DHT22;969;49.892;10.896;2022-07-29T08:51:56;27.10;40.90
1936;DHT22;969;49.892;10.896;2022-07-29T08:54:45;27.10;41.00
1936;DHT22;969;49.892;10.896;2022-07-29T08:57:19;27.10;40.90
1936;DHT22;969;49.892;10.896;2022-07-29T09:03:31;27.10;41.10
1936;DHT22;969;49.892;10.896;2022-07-29T09:16:20;27.20;41.20
1936;DHT22;969;49.892;10.896;2022-07-29T09:22:05;27.20;41.30
1936;DHT22;969;49.892;10.896;2022-07-29T09:25:07;27.20;41.30
1936;DHT22;969;49.892;10.896;2022-07-29T09:28:09;27.20;41.30
1936;DHT22;969;49.892;10.896;2022-07-29T09:30:56;27.20;41.30
1936;DHT22;969;49.892;10.896;2022-07-29T09:33:59;27.20;41.30
1936;DHT22;969;49.892;10.896;2022-07-29T09:36:30;27.20;41.30
1936;DHT22;969;49.892;10.896;2022-07-29T09:39:02;27.30;41.40
1936;DHT22;969;49.892;10.896;2022-07-29T09:41:56;27.30;41.50
1936;DHT22;969;49.892;10.896;2022-07-29T09:44:26;27.30;41.60
1936;DHT22;969;49.892;10.896;2022-07-29T09:47:18;27.20;41.60
1936;DHT22;969;49.892;10.896;2022-07-29T09:56:05;27.30;41.80
1936;DHT22;969;49.892;10.896;2022-07-29T09:59:08;27.30;41.90
1936;DHT22;969;49.892;10.896;2022-07-29T10:01:40;27.30;42.00
1936;DHT22;969;49.892;10.896;2022-07-29T10:04:06;27.30;42.10
1936;DHT22;969;49.892;10.896;2022-07-29T10:06:35;27.30;42.10
1936;DHT22;969;49.892;10.896;2022-07-29T10:09:56;27.30;42.00
1936;DHT22;969;49.892;10.896;2022-07-29T10:12:29;27.30;42.20
1936;DHT22;969;49.892;10.896;2022-07-29T10:14:55;27.30;42.10
1936;DHT22;969;49.892;10.896;2022-07-29T10:17:26;27.30;42.20
1936;DHT22;969;49.892;10.896;2022-07-29T10:19:52;27.40;42.40
1936;DHT22;969;49.892;10.896;2022-07-29T10:22:42;27.40;42.50
1936;DHT22;969;49.892;10.896;2022-07-29T10:25:12;27.40;42.70
1936;DHT22;969;49.892;10.896;2022-07-29T10:27:45;27.40;42.50
1936;DHT22;969;49.892;10.896;2022-07-29T10:30:20;27.40;42.60
1936;DHT22;969;49.892;10.896;2022-07-29T10:33:08;27.40;42.50
1936;DHT22;969;49.892;10.896;2022-07-29T10:45:33;27.40;42.50
1936;DHT22;969;49.892;10.896;2022-07-29T10:48:06;27.40;42.60
1936;DHT22;969;49.892;10.896;2022-07-29T10:51:00;27.40;42.50
1936;DHT22;969;49.892;10.896;2022-07-29T10:53:51;27.40;42.60
1936;DHT22;969;49.892;10.896;2022-07-29T10:56:32;27.40;42.50
1936;DHT22;969;49.892;10.896;2022-07-29T11:09:22;27.40;42.60
1936;DHT22;969;49.892;10.896;2022-07-29T11:11:55;27.40;42.70
1936;DHT22;969;49.892;10.896;2022-07-29T11:15:01;27.40;42.70
1936;DHT22;969;49.892;10.896;2022-07-29T11:20:52;27.40;42.90
1936;DHT22;969;49.892;10.896;2022-07-29T11:23:40;27.40;43.00
1936;DHT22;969;49.892;10.896;2022-07-29T11:26:28;27.40;43.20
1936;DHT22;969;49.892;10.896;2022-07-29T11:29:38;27.50;43.30
1936;DHT22;969;49.892;10.896;2022-07-29T11:32:12;27.50;43.40
1936;DHT22;969;49.892;10.896;2022-07-29T11:34:40;27.50;43.40
1936;DHT22;969;49.892;10.896;2022-07-29T11:37:28;27.50;43.40
1936;DHT22;969;49.892;10.896;2022-07-29T11:43:57;27.50;43.50
1936;DHT22;969;49.892;10.896;2022-07-29T11:46:49;27.50;43.60
1936;DHT22;969;49.892;10.896;2022-07-29T11:49:35;27.50;43.60
1936;DHT22;969;49.892;10.896;2022-07-29T11:52:03;27.50;43.70
1936;DHT22;969;49.892;10.896;2022-07-29T11:54:51;27.50;43.70
1936;DHT22;969;49.892;10.896;2022-07-29T11:57:23;27.50;43.80
1936;DHT22;969;49.892;10.896;2022-07-29T11:59:58;27.50;44.60
1936;DHT22;969;49.892;10.896;2022-07-29T12:05:46;27.60;44.00
1936;DHT22;969;49.892;10.896;2022-07-29T12:08:28;27.50;43.80
1936;DHT22;969;49.892;10.896;2022-07-29T12:14:32;27.60;43.80
1936;DHT22;969;49.892;10.896;2022-07-29T12:17:08;27.50;43.90
1936;DHT22;969;49.892;10.896;2022-07-29T12:19:53;27.50;43.90
1936;DHT22;969;49.892;10.896;2022-07-29T12:22:37;27.50;43.80
1936;DHT22;969;49.892;10.896;2022-07-29T12:25:11;27.60;43.90
1936;DHT22;969;49.892;10.896;2022-07-29T12:30:55;27.60;43.80
1936;DHT22;969;49.892;10.896;2022-07-29T12:33:28;27.60;43.90
1936;DHT22;969;49.892;10.896;2022-07-29T12:36:08;27.60;43.90
1936;DHT22;969;49.892;10.896;2022-07-29T12:42:16;27.60;43.80
1936;DHT22;969;49.892;10.896;2022-07-29T12:44:50;27.60;44.50
1936;DHT22;969;49.892;10.896;2022-07-29T12:47:21;27.60;44.00
1936;DHT22;969;49.892;10.896;2022-07-29T12:50:14;27.60;44.00
1936;DHT22;969;49.892;10.896;2022-07-29T12:52:43;27.60;43.90
1936;DHT22;969;49.892;10.896;2022-07-29T12:55:14;27.60;43.90
1936;DHT22;969;49.892;10.896;2022-07-29T12:57:49;27.60;43.90
1936;DHT22;969;49.892;10.896;2022-07-29T13:00:34;27.60;44.00
1936;DHT22;969;49.892;10.896;2022-07-29T13:03:03;27.60;44.00
1936;DHT22;969;49.892;10.896;2022-07-29T13:05:44;27.60;44.00
1936;DHT22;969;49.892;10.896;2022-07-29T13:08:27;27.60;44.10
1936;DHT22;969;49.892;10.896;2022-07-29T13:11:01;27.60;44.00
1936;DHT22;969;49.892;10.896;2022-07-29T13:13:49;27.60;44.10
1936;DHT22;969;49.892;10.896;2022-07-29T13:20:23;27.60;44.10
1936;DHT22;969;49.892;10.896;2022-07-29T13:26:42;27.60;44.20
1936;DHT22;969;49.892;10.896;2022-07-29T13:29:12;27.60;44.30
1936;DHT22;969;49.892;10.896;2022-07-29T13:39:12;27.60;44.20
1936;DHT22;969;49.892;10.896;2022-07-29T13:42:46;27.70;44.40
1936;DHT22;969;49.892;10.896;2022-07-29T13:45:24;27.60;44.30
1936;DHT22;969;49.892;10.896;2022-07-29T13:47:59;27.60;44.30
1936;DHT22;969;49.892;10.896;2022-07-29T13:50:29;27.60;44.40
1936;DHT22;969;49.892;10.896;2022-07-29T13:53:04;27.60;44.30
1936;DHT22;969;49.892;10.896;2022-07-29T13:55:36;27.70;44.30
1936;DHT22;969;49.892;10.896;2022-07-29T14:02:03;27.70;44.60
1936;DHT22;969;49.892;10.896;2022-07-29T14:05:15;27.70;44.50
1936;DHT22;969;49.892;10.896;2022-07-29T14:08:02;27.70;44.60
1936;DHT22;969;49.892;10.896;2022-07-29T14:10:34;27.60;44.50
1936;DHT22;969;49.892;10.896;2022-07-29T14:13:04;27.70;44.50
1936;DHT22;969;49.892;10.896;2022-07-29T14:15:39;27.70;44.60
1936;DHT22;969;49.892;10.896;2022-07-29T14:21:50;27.70;44.60
1936;DHT22;969;49.892;10.896;2022-07-29T14:24:43;27.70;44.70
1936;DHT22;969;49.892;10.896;2022-07-29T14:28:01;27.70;44.70
1936;DHT22;969;49.892;10.896;2022-07-29T14:30:31;27.70;44.90
1936;DHT22;969;49.892;10.896;2022-07-29T14:33:03;27.70;44.80
1936;DHT22;969;49.892;10.896;2022-07-29T14:35:35;27.70;44.90
1936;DHT22;969;49.892;10.896;2022-07-29T14:38:26;27.70;44.90
1936;DHT22;969;49.892;10.896;2022-07-29T14:41:13;27.80;45.00
1936;DHT22;969;49.892;10.896;2022-07-29T14:43:51;27.70;45.40
1936;DHT22;969;49.892;10.896;2022-07-29T14:46:40;27.70;45.00
1936;DHT22;969;49.892;10.896;2022-07-29T14:59:34;27.70;45.10
1936;DHT22;969;49.892;10.896;2022-07-29T15:02:16;27.70;45.20
1936;DHT22;969;49.892;10.896;2022-07-29T15:04:48;27.70;45.30
1936;DHT22;969;49.892;10.896;2022-07-29T15:07:18;27.70;45.20
1936;DHT22;969;49.892;10.896;2022-07-29T15:09:50;27.80;45.10
1936;DHT22;969;49.892;10.896;2022-07-29T15:12:34;27.80;45.20
1936;DHT22;969;49.892;10.896;2022-07-29T15:15:01;27.80;45.30
1936;DHT22;969;49.892;10.896;2022-07-29T15:17:29;27.80;45.20
1936;DHT22;969;49.892;10.896;2022-07-29T15:20:13;27.80;45.40
1936;DHT22;969;49.892;10.896;2022-07-29T15:23:05;27.80;45.40
1936;DHT22;969;49.892;10.896;2022-07-29T15:29:17;27.80;45.90
1936;DHT22;969;49.892;10.896;2022-07-29T15:31:51;27.80;46.20
1936;DHT22;969;49.892;10.896;2022-07-29T15:34:18;27.80;46.10
1936;DHT22;969;49.892;10.896;2022-07-29T15:36:49;27.80;46.10
1936;DHT22;969;49.892;10.896;2022-07-29T15:39:29;27.80;45.80
1936;DHT22;969;49.892;10.896;2022-07-29T15:41:59;27.80;45.70
1936;DHT22;969;49.892;10.896;2022-07-29T15:44:34;27.80;45.80
1936;DHT22;969;49.892;10.896;2022-07-29T15:47:07;27.70;45.80
1936;DHT22;969;49.892;10.896;2022-07-29T15:49:38;27.80;45.90
1936;DHT22;969;49.892;10.896;2022-07-29T15:52:17;27.70;45.90
1936;DHT22;969;49.892;10.896;2022-07-29T15:54:49;27.80;45.90
1936;DHT22;969;49.892;10.896;2022-07-29T15:57:18;27.70;45.90
1936;DHT22;969;49.892;10.896;2022-07-29T16:00:06;27.70;45.90
1936;DHT22;969;49.892;10.896;2022-07-29T16:03:15;27.70;46.10
1936;DHT22;969;49.892;10.896;2022-07-29T16:06:30;27.70;46.30
1936;DHT22;969;49.892;10.896;2022-07-29T16:09:14;27.70;46.40
1936;DHT22;969;49.892;10.896;2022-07-29T16:12:00;27.70;46.80
1936;DHT22;969;49.892;10.896;2022-07-29T16:18:34;27.70;47.40
1936;DHT22;969;49.892;10.896;2022-07-29T16:21:03;27.70;46.90
1936;DHT22;969;49.892;10.896;2022-07-29T16:27:32;27.60;46.90
1936;DHT22;969;49.892;10.896;2022-07-29T16:30:01;27.60;46.70
1936;DHT22;969;49.892;10.896;2022-07-29T16:36:25;27.70;46.70
1936;DHT22;969;49.892;10.896;2022-07-29T16:39:02;27.60;46.70
1936;DHT22;969;49.892;10.896;2022-07-29T16:42:01;27.70;47.40
1936;DHT22;969;49.892;10.896;2022-07-29T16:44:36;27.70;47.40
1936;DHT22;969;49.892;10.896;2022-07-29T16:47:09;27.70;47.40
1936;DHT22;969;49.892;10.896;2022-07-29T16:49:45;27.70;46.80
1936;DHT22;969;49.892;10.896;2022-07-29T16:52:21;27.70;47.00
1936;DHT22;969;49.892;10.896;2022-07-29T16:54:57;27.70;48.00
1936;DHT22;969;49.892;10.896;2022-07-29T16:57:32;27.70;48.00
1936;DHT22;969;49.892;10.896;2022-07-29T17:00:00;27.70;48.30
1936;DHT22;969;49.892;10.896;2022-07-29T17:09:47;27.60;49.10
1936;DHT22;969;49.892;10.896;2022-07-29T17:12:30;27.60;48.30
1936;DHT22;969;49.892;10.896;2022-07-29T17:15:20;27.60;48.00
1936;DHT22;969;49.892;10.896;2022-07-29T17:17:53;27.60;48.10
1936;DHT22;969;49.892;10.896;2022-07-29T17:20:43;27.60;48.00
1936;DHT22;969;49.892;10.896;2022-07-29T17:23:27;27.60;48.10
1936;DHT22;969;49.892;10.896;2022-07-29T17:26:35;27.60;48.20
1936;DHT22;969;49.892;10.896;2022-07-29T17:29:10;27.60;48.20
1936;DHT22;969;49.892;10.896;2022-07-29T17:31:48;27.60;48.30
1936;DHT22;969;49.892;10.896;2022-07-29T17:34:41;27.60;48.20
1936;DHT22;969;49.892;10.896;2022-07-29T17:37:21;27.60;48.50
1936;DHT22;969;49.892;10.896;2022-07-29T17:39:57;27.60;48.90
1936;DHT22;969;49.892;10.896;2022-07-29T17:42:40;27.60;48.50
1936;DHT22;969;49.892;10.896;2022-07-29T17:45:14;27.60;48.20
1936;DHT22;969;49.892;10.896;2022-07-29T17:48:12;27.60;48.70
1936;DHT22;969;49.892;10.896;2022-07-29T17:51:01;27.60;48.20
1936;DHT22;969;49.892;10.896;2022-07-29T17:54:10;27.60;47.70
1936;DHT22;969;49.892;10.896;2022-07-29T17:57:07;27.60;47.70
1936;DHT22;969;49.892;10.896;2022-07-29T18:02:55;27.60;47.50
1936;DHT22;969;49.892;10.896;2022-07-29T18:05:35;27.50;47.40
1936;DHT22;969;49.892;10.896;2022-07-29T18:08:30;27.60;48.00
1936;DHT22;969;49.892;10.896;2022-07-29T18:11:08;27.60;47.60
1936;DHT22;969;49.892;10.896;2022-07-29T18:13:45;27.60;47.40
1936;DHT22;969;49.892;10.896;2022-07-29T18:16:23;27.60;47.40
1936;DHT22;969;49.892;10.896;2022-07-29T18:25:54;27.60;47.30
1936;DHT22;969;49.892;10.896;2022-07-29T18:28:37;27.60;47.40
1936;DHT22;969;49.892;10.896;2022-07-29T18:31:19;27.60;47.30
1936;DHT22;969;49.892;10.896;2022-07-29T18:34:34;27.60;47.40
1936;DHT22;969;49.892;10.896;2022-07-29T18:40:42;27.60;47.40
1936;DHT22;969;49.892;10.896;2022-07-29T18:43:14;27.60;47.20
1936;DHT22;969;49.892;10.896;2022-07-29T18:45:44;27.60;47.30
1936;DHT22;969;49.892;10.896;2022-07-29T18:58:53;27.60;47.30
1936;DHT22;969;49.892;10.896;2022-07-29T19:02:08;27.60;47.00
1936;DHT22;969;49.892;10.896;2022-07-29T19:05:07;27.60;47.20
1936;DHT22;969;49.892;10.896;2022-07-29T19:07:44;27.60;47.60
1936;DHT22;969;49.892;10.896;2022-07-29T19:10:16;27.60;47.80
1936;DHT22;969;49.892;10.896;2022-07-29T19:12:56;27.60;47.80
1936;DHT22;969;49.892;10.896;2022-07-29T19:15:23;27.60;48.30
1936;DHT22;969;49.892;10.896;2022-07-29T19:21:35;27.60;48.10
1936;DHT22;969;49.892;10.896;2022-07-29T19:27:47;27.60;48.70
1936;DHT22;969;49.892;10.896;2022-07-29T19:30:47;27.60;48.50
1936;DHT22;969;49.892;10.896;2022-07-29T19:33:22;27.60;48.50
1936;DHT22;969;49.892;10.896;2022-07-29T19:39:01;27.60;48.40
1936;DHT22;969;49.892;10.896;2022-07-29T19:41:59;27.50;47.90
1936;DHT22;969;49.892;10.896;2022-07-29T19:44:59;27.60;47.70
1936;DHT22;969;49.892;10.896;2022-07-29T20:08:17;27.60;48.10
1936;DHT22;969;49.892;10.896;2022-07-29T20:38:59;27.50;48.80
1936;DHT22;969;49.892;10.896;2022-07-29T21:13:48;27.50;49.00
1936;DHT22;969;49.892;10.896;2022-07-29T21:16:40;27.50;48.90
1936;DHT22;969;49.892;10.896;2022-07-29T21:19:48;27.50;48.80
1936;DHT22;969;49.892;10.896;2022-07-29T21:22:57;27.50;49.00
1936;DHT22;969;49.892;10.896;2022-07-29T21:29:32;27.60;49.20
1936;DHT22;969;49.892;10.896;2022-07-29T21:32:10;27.60;49.00
1936;DHT22;969;49.892;10.896;2022-07-29T21:35:05;27.60;48.80
1936;DHT22;969;49.892;10.896;2022-07-29T21:38:09;27.60;48.80
1936;DHT22;969;49.892;10.896;2022-07-29T21:48:06;27.60;48.90
1936;DHT22;969;49.892;10.896;2022-07-29T21:51:05;27.60;48.80
1936;DHT22;969;49.892;10.896;2022-07-29T21:53:58;27.60;48.70
1936;DHT22;969;49.892;10.896;2022-07-29T21:56:33;27.60;48.50
1936;DHT22;969;49.892;10.896;2022-07-29T22:02:09;27.60;48.50
1936;DHT22;969;49.892;10.896;2022-07-29T22:04:45;27.60;48.70
1936;DHT22;969;49.892;10.896;2022-07-29T22:11:10;27.70;48.70
1936;DHT22;969;49.892;10.896;2022-07-29T22:14:59;27.60;48.60
1936;DHT22;969;49.892;10.896;2022-07-29T22:17:56;27.70;48.60
1936;DHT22;969;49.892;10.896;2022-07-29T22:24:15;27.70;48.50
1936;DHT22;969;49.892;10.896;2022-07-29T22:26:58;27.70;48.50
1936;DHT22;969;49.892;10.896;2022-07-29T22:29:47;27.60;48.40
1936;DHT22;969;49.892;10.896;2022-07-29T22:32:46;27.70;48.80
1936;DHT22;969;49.892;10.896;2022-07-29T22:35:27;27.70;48.60
1936;DHT22;969;49.892;10.896;2022-07-29T22:38:05;27.70;48.60
1936;DHT22;969;49.892;10.896;2022-07-29T22:41:00;27.70;48.90
1936;DHT22;969;49.892;10.896;2022-07-29T22:44:05;27.70;48.80
1936;DHT22;969;49.892;10.896;2022-07-29T22:46:45;27.70;48.90
1936;DHT22;969;49.892;10.896;2022-07-29T22:53:13;27.70;49.20
1936;DHT22;969;49.892;10.896;2022-07-29T22:59:44;27.70;49.30
1936;DHT22;969;49.892;10.896;2022-07-29T23:02:23;27.70;49.20
1936;DHT22;969;49.892;10.896;2022-07-29T23:05:03;27.70;49.60
1936;DHT22;969;49.892;10.896;2022-07-29T23:07:34;27.70;49.60
1936;DHT22;969;49.892;10.896;2022-07-29T23:10:13;27.70;49.70
1936;DHT22;969;49.892;10.896;2022-07-29T23:12:47;27.70;49.80
1936;DHT22;969;49.892;10.896;2022-07-29T23:15:38;27.70;49.90
1936;DHT22;969;49.892;10.896;2022-07-29T23:18:22;27.70;50.00
1936;DHT22;969;49.892;10.896;2022-07-29T23:24:18;27.70;50.00
1936;DHT22;969;49.892;10.896;2022-07-29T23:26:55;27.70;49.90
1936;DHT22;969;49.892;10.896;2022-07-29T23:29:58;27.70;49.50
1936;DHT22;969;49.892;10.896;2022-07-29T23:32:48;27.70;49.60
1936;DHT22;969;49.892;10.896;2022-07-29T23:35:27;27.70;49.80
1936;DHT22;969;49.892;10.896;2022-07-29T23:44:35;27.60;50.80
1936;DHT22;969;49.892;10.896;2022-07-29T23:53:51;27.60;50.40
